createdAt,value
2023-01-21T00:00:23.181Z,-3276.30
2023-01-21T00:02:53.179Z,-3276.30
2023-01-21T00:05:22.159Z,-3276.20
2023-01-21T00:07:50.876Z,-3276.30
2023-01-21T00:10:18.758Z,-3276.30
2023-01-21T00:12:45.449Z,-3276.10
2023-01-21T00:15:14.188Z,-3276.20
2023-01-21T00:17:43.985Z,-3276.20
2023-01-21T00:20:12.548Z,-3275.90
2023-01-21T00:22:39.659Z,-3276.10
2023-01-21T00:25:08.674Z,-3276.00
2023-01-21T00:27:35.252Z,-3276.00
2023-01-21T00:30:01.971Z,-3276.10
2023-01-21T00:32:30.864Z,-3276.20
2023-01-21T00:34:59.850Z,-3276.20
2023-01-21T00:37:26.441Z,-3275.90
2023-01-21T00:39:52.962Z,-3276.00
2023-01-21T00:42:21.692Z,-3275.90
2023-01-21T00:44:50.407Z,-3275.80
2023-01-21T00:47:19.357Z,-3275.80
2023-01-21T00:49:45.998Z,-3275.90
2023-01-21T00:52:12.523Z,-3275.80
2023-01-21T00:54:44.328Z,-3276.00
2023-01-21T00:57:10.903Z,-3276.00
2023-01-21T00:59:40.338Z,-3276.00
2023-01-21T01:02:07.090Z,-3275.80
2023-01-21T01:04:33.639Z,-3275.70
2023-01-21T01:07:00.214Z,-3275.50
2023-01-21T01:09:26.932Z,-3275.80
2023-01-21T01:11:53.839Z,-3275.70
2023-01-21T01:14:20.595Z,-3275.90
2023-01-21T01:16:47.148Z,-3275.80
2023-01-21T01:19:13.698Z,-3275.90
2023-01-21T01:21:42.771Z,-3275.80
2023-01-21T01:24:09.337Z,-3275.80
2023-01-21T01:26:42.282Z,-3275.80
2023-01-21T01:29:13.376Z,-3275.60
2023-01-21T01:31:43.662Z,-3275.70
2023-01-21T01:34:10.317Z,-3275.50
2023-01-21T01:36:36.898Z,-3275.60
2023-01-21T01:39:03.894Z,-3275.60
2023-01-21T01:41:35.199Z,-3275.80
2023-01-21T01:44:03.247Z,-3276.00
2023-01-21T01:46:31.336Z,-3276.30
2023-01-21T01:49:01.264Z,-3276.00
2023-01-21T01:51:33.473Z,-3275.80
2023-01-21T01:54:00.363Z,-3275.80
2023-01-21T01:56:28.483Z,-3275.40
2023-01-21T01:58:55.162Z,-3275.40
2023-01-21T02:01:22.131Z,-3275.50
2023-01-21T02:03:54.272Z,-3275.70
2023-01-21T02:06:20.915Z,-3275.40
2023-01-21T02:08:47.970Z,-3275.60
2023-01-21T02:11:17.650Z,-3275.70
2023-01-21T02:13:46.456Z,-3275.70
2023-01-21T02:16:19.136Z,-3275.50
2023-01-21T02:18:51.612Z,-3275.50
2023-01-21T02:21:21.153Z,-3275.70
2023-01-21T02:23:53.536Z,-3275.70
2023-01-21T02:26:39.036Z,-3275.90
2023-01-21T02:29:15.778Z,-3275.80
2023-01-21T02:31:57.533Z,-3275.70
2023-01-21T02:34:56.559Z,-3275.80
2023-01-21T02:37:41.916Z,-3275.70
2023-01-21T02:40:08.646Z,-3275.80
2023-01-21T02:42:50.876Z,-3275.90
2023-01-21T02:45:23.952Z,-3275.90
2023-01-21T02:48:05.940Z,-3275.70
2023-01-21T02:50:34.354Z,-3275.90
2023-01-21T02:53:04.287Z,-3275.70
2023-01-21T02:55:41.400Z,-3275.70
2023-01-21T02:58:11.612Z,-3275.50
2023-01-21T03:00:38.167Z,-3275.60
2023-01-21T03:03:15.349Z,-3275.30
2023-01-21T03:05:41.868Z,-3275.40
2023-01-21T03:08:12.805Z,-3275.60
2023-01-21T03:10:42.370Z,-3275.50
2023-01-21T03:13:11.883Z,-3275.60
2023-01-21T03:16:23.323Z,-3275.50
2023-01-21T03:18:52.921Z,-3275.50
2023-01-21T03:21:23.831Z,-3275.30
2023-01-21T03:23:52.080Z,-3275.40
2023-01-21T03:26:21.001Z,-3275.50
2023-01-21T03:28:49.828Z,-3275.30
2023-01-21T03:31:19.212Z,-3275.50
2023-01-21T03:33:48.951Z,-3275.20
2023-01-21T03:36:21.755Z,-3275.40
2023-01-21T03:38:49.744Z,-3275.50
2023-01-21T03:41:28.597Z,-3275.50
2023-01-21T03:43:55.218Z,-3275.60
2023-01-21T03:46:26.140Z,-3275.70
2023-01-21T03:49:00.809Z,-3275.60
2023-01-21T03:51:33.749Z,-3275.50
2023-01-21T03:54:00.596Z,-3275.60
2023-01-21T03:56:27.781Z,-3275.80
2023-01-21T03:58:54.412Z,-3275.80
2023-01-21T04:01:21.348Z,-3275.80
2023-01-21T04:03:50.378Z,-3276.00
2023-01-21T04:06:18.702Z,-3276.00
2023-01-21T04:08:48.131Z,-3276.10
2023-01-21T04:11:15.004Z,-3275.90
2023-01-21T04:13:43.721Z,-3275.90
2023-01-21T04:16:10.383Z,-3276.10
2023-01-21T04:18:39.176Z,-3275.90
2023-01-21T04:21:08.413Z,-3275.80
2023-01-21T04:23:37.165Z,-3275.90
2023-01-21T04:26:03.942Z,-3275.90
2023-01-21T04:28:30.481Z,-3275.80
2023-01-21T04:30:57.033Z,-3275.80
2023-01-21T04:33:23.599Z,-3276.00
2023-01-21T04:35:52.445Z,-3276.10
2023-01-21T04:38:19.078Z,-3276.00
2023-01-21T04:40:45.669Z,-3276.20
2023-01-21T04:43:14.435Z,-3276.10
2023-01-21T04:45:41.061Z,-3276.30
2023-01-21T04:48:07.856Z,-3276.10
2023-01-21T04:50:34.619Z,-3275.90
2023-01-21T04:53:03.636Z,-3276.10
2023-01-21T04:55:30.276Z,-3276.00
2023-01-21T04:57:59.081Z,-3275.90
2023-01-21T05:00:25.694Z,-3276.00
2023-01-21T05:02:52.363Z,-3275.90
2023-01-21T05:05:21.381Z,-3275.90
2023-01-21T05:07:47.904Z,-3275.90
2023-01-21T05:10:18.118Z,-3275.80
2023-01-21T05:12:44.861Z,-3275.90
2023-01-21T05:15:11.552Z,-3275.70
2023-01-21T05:17:40.745Z,-3275.70
2023-01-21T05:20:07.456Z,-3275.70
2023-01-21T05:22:36.303Z,-3275.70
2023-01-21T05:25:03.143Z,-3275.70
2023-01-21T05:27:29.795Z,-3275.70
2023-01-21T05:29:57.160Z,-3275.90
2023-01-21T05:32:26.148Z,-3275.90
2023-01-21T05:34:52.724Z,-3275.80
2023-01-21T05:37:19.362Z,-3275.60
2023-01-21T05:39:45.942Z,-3275.80
2023-01-21T05:42:12.602Z,-3275.70
2023-01-21T05:44:39.230Z,-3275.50
2023-01-21T05:47:07.577Z,-3275.70
2023-01-21T05:49:36.362Z,-3275.50
2023-01-21T05:52:03.049Z,-3275.60
2023-01-21T05:54:29.791Z,-3275.40
2023-01-21T05:56:56.362Z,-3275.40
2023-01-21T05:59:28.509Z,-3275.40
2023-01-21T06:01:55.047Z,-3275.60
2023-01-21T06:04:23.885Z,-3275.20
2023-01-21T06:06:50.546Z,-3275.20
2023-01-21T06:09:19.608Z,-3275.30
2023-01-21T06:11:48.555Z,-3275.30
2023-01-21T06:14:15.123Z,-3275.30
2023-01-21T06:16:42.021Z,-3275.40
2023-01-21T06:19:08.761Z,-3275.30
2023-01-21T06:21:35.345Z,-3275.20
2023-01-21T06:24:02.596Z,-3275.00
2023-01-21T06:26:29.130Z,-3275.00
2023-01-21T06:28:56.912Z,-3275.10
2023-01-21T06:31:24.195Z,-3275.10
2023-01-21T06:33:50.887Z,-3274.90
2023-01-21T06:36:17.628Z,-3275.20
2023-01-21T06:38:44.181Z,-3274.90
2023-01-21T06:41:10.807Z,-3275.10
2023-01-21T06:43:39.796Z,-3274.70
2023-01-21T06:46:06.392Z,-3274.80
2023-01-21T06:48:35.404Z,-3274.80
2023-01-21T06:51:02.111Z,-3274.80
2023-01-21T06:53:28.791Z,-3275.00
2023-01-21T06:55:55.357Z,-3275.00
2023-01-21T06:58:21.980Z,-3274.90
2023-01-21T07:00:48.592Z,-3274.90
2023-01-21T07:03:15.165Z,-3274.80
2023-01-21T07:05:42.146Z,-3274.60
2023-01-21T07:08:08.733Z,-3274.80
2023-01-21T07:10:37.816Z,-3274.70
2023-01-21T07:13:06.791Z,-3274.80
2023-01-21T07:15:33.643Z,-3274.80
2023-01-21T07:18:00.183Z,-3274.70
2023-01-21T07:20:29.263Z,-3274.80
2023-01-21T07:22:55.878Z,-3274.80
2023-01-21T07:25:22.741Z,-3275.00
2023-01-21T07:27:49.288Z,-3275.00
2023-01-21T07:30:17.839Z,-3275.00
2023-01-21T07:32:45.295Z,-3274.90
2023-01-21T07:35:12.036Z,-3274.90
2023-01-21T07:37:38.612Z,-3275.10
2023-01-21T07:40:05.789Z,-3274.90
2023-01-21T07:42:32.462Z,-3275.00
2023-01-21T07:44:59.577Z,-3275.00
2023-01-21T07:47:26.511Z,-3275.00
2023-01-21T07:49:53.129Z,-3275.00
2023-01-21T07:52:19.730Z,-3275.10
2023-01-21T07:54:48.942Z,-3275.10
2023-01-21T07:57:15.485Z,-3275.10
2023-01-21T07:59:42.138Z,-3275.20
2023-01-21T08:02:09.961Z,-3275.30
2023-01-21T08:04:36.590Z,-3275.20
2023-01-21T08:07:11.859Z,-3275.20
2023-01-21T08:09:41.881Z,-3275.20
2023-01-21T08:12:08.692Z,-3275.10
2023-01-21T08:14:35.413Z,-3274.80
2023-01-21T08:17:03.731Z,-3275.00
2023-01-21T08:19:30.282Z,-3275.10
2023-01-21T08:21:56.888Z,-3274.90
2023-01-21T08:24:25.058Z,-3275.10
2023-01-21T08:26:51.586Z,-3275.20
2023-01-21T08:29:18.202Z,-3275.10
2023-01-21T08:31:47.351Z,-3275.10
2023-01-21T08:34:17.383Z,-3275.20
2023-01-21T08:36:44.173Z,-3275.20
2023-01-21T08:39:12.705Z,-3275.20
2023-01-21T08:41:41.787Z,-3275.20
2023-01-21T08:44:08.514Z,-3275.20
2023-01-21T08:46:35.078Z,-3275.20
2023-01-21T08:49:01.904Z,-3275.30
2023-01-21T08:51:28.462Z,-3275.30
2023-01-21T08:53:57.582Z,-3275.30
2023-01-21T08:56:24.173Z,-3275.30
2023-01-21T08:58:54.152Z,-3275.40
2023-01-21T09:01:20.971Z,-3275.30
2023-01-21T09:03:47.617Z,-3275.40
2023-01-21T09:06:14.253Z,-3275.60
2023-01-21T09:08:42.068Z,-3275.50
2023-01-21T09:11:09.998Z,-3275.60
2023-01-21T09:13:37.851Z,-3275.60
2023-01-21T09:16:08.349Z,-3275.60
2023-01-21T09:18:38.103Z,-3275.70
2023-01-21T09:21:05.772Z,-3275.80
2023-01-21T09:23:34.829Z,-3275.90
2023-01-21T09:26:03.341Z,-3276.00
2023-01-21T09:28:30.408Z,-3276.20
2023-01-21T09:30:58.508Z,-3276.10
2023-01-21T09:33:25.771Z,-3276.40
2023-01-21T09:35:52.997Z,-3276.10
2023-01-21T09:38:19.561Z,-3276.20
2023-01-21T09:40:46.791Z,-3276.20
2023-01-21T09:43:19.102Z,-3275.90
2023-01-21T09:45:51.157Z,-3276.00
2023-01-21T09:48:24.713Z,-3276.20
2023-01-21T09:50:51.732Z,-3276.30
2023-01-21T09:53:24.869Z,-3276.20
2023-01-21T09:55:53.017Z,-3276.20
2023-01-21T09:58:37.450Z,-3276.20
2023-01-21T10:01:24.567Z,-3276.50
2023-01-21T10:03:57.503Z,-3276.40
2023-01-21T10:06:36.680Z,-3276.30
2023-01-21T10:09:09.287Z,-3276.30
2023-01-21T10:11:43.071Z,-3276.30
2023-01-21T10:14:24.419Z,-3276.30
2023-01-21T10:17:00.132Z,-3276.40
2023-01-21T10:19:33.270Z,-3276.50
2023-01-21T10:22:01.949Z,-3276.40
2023-01-21T10:24:35.272Z,-3276.40
2023-01-21T10:27:02.001Z,-3276.60
2023-01-21T10:29:28.947Z,-3276.50
2023-01-21T10:32:07.221Z,-3276.60
2023-01-21T10:34:38.012Z,-3276.70
2023-01-21T10:37:24.288Z,-3276.60
2023-01-21T10:40:02.588Z,-3276.70
2023-01-21T10:42:54.476Z,0.10
2023-01-21T10:45:27.438Z,0.00
2023-01-21T10:47:57.049Z,-3276.70
2023-01-21T10:50:42.526Z,-3276.70
2023-01-21T10:53:17.974Z,-3276.60
2023-01-21T10:55:53.644Z,-3276.70
2023-01-21T10:58:34.979Z,0.00
2023-01-21T11:01:04.439Z,-3276.70
2023-01-21T11:03:34.395Z,0.00
2023-01-21T11:06:04.325Z,-3276.70
2023-01-21T11:08:33.555Z,-3276.70
2023-01-21T11:11:02.977Z,-3276.70
2023-01-21T11:13:29.630Z,0.20
2023-01-21T11:15:57.914Z,0.20
2023-01-21T11:18:30.039Z,0.00
2023-01-21T11:21:00.938Z,0.20
2023-01-21T11:23:32.602Z,0.20
2023-01-21T11:26:20.325Z,0.40
2023-01-21T11:28:46.968Z,0.40
2023-01-21T11:31:15.374Z,0.40
2023-01-21T11:33:43.053Z,0.50
2023-01-21T11:36:15.988Z,0.50
2023-01-21T11:38:45.551Z,0.40
2023-01-21T11:41:12.033Z,0.50
2023-01-21T11:43:46.108Z,0.50
2023-01-21T11:46:34.144Z,0.30
2023-01-21T11:49:07.075Z,0.40
2023-01-21T11:51:36.791Z,0.50
2023-01-21T11:54:12.435Z,0.40
2023-01-21T11:56:39.496Z,0.60
2023-01-21T11:59:24.659Z,0.30
2023-01-21T12:02:05.407Z,0.10
2023-01-21T12:04:32.469Z,0.00
2023-01-21T12:07:02.528Z,0.50
2023-01-21T12:09:31.477Z,0.30
2023-01-21T12:12:19.257Z,0.40
2023-01-21T12:14:48.815Z,0.60
2023-01-21T12:17:30.817Z,0.70
2023-01-21T12:19:57.415Z,0.40
2023-01-21T12:22:30.816Z,0.50
2023-01-21T12:25:06.515Z,0.20
2023-01-21T12:27:42.567Z,0.60
2023-01-21T12:30:15.462Z,0.50
2023-01-21T12:32:56.711Z,0.40
2023-01-21T12:35:26.521Z,0.30
2023-01-21T12:38:03.346Z,0.30
2023-01-21T12:40:31.884Z,0.40
2023-01-21T12:43:04.941Z,0.30
2023-01-21T12:45:36.756Z,0.70
2023-01-21T12:48:06.398Z,0.40
2023-01-21T12:50:39.723Z,0.50
2023-01-21T12:53:19.501Z,0.40
2023-01-21T12:55:56.187Z,0.70
2023-01-21T12:58:25.240Z,0.50
2023-01-21T13:00:54.080Z,0.70
2023-01-21T13:03:26.531Z,0.60
2023-01-21T13:06:04.696Z,0.90
2023-01-21T13:08:46.393Z,0.80
2023-01-21T13:11:15.708Z,0.80
2023-01-21T13:13:47.279Z,0.90
2023-01-21T13:16:14.826Z,0.80
2023-01-21T13:18:43.340Z,0.90
2023-01-21T13:21:16.095Z,0.70
2023-01-21T13:23:50.423Z,0.80
2023-01-21T13:26:20.037Z,1.00
2023-01-21T13:28:55.570Z,1.10
2023-01-21T13:31:31.001Z,1.10
2023-01-21T13:34:11.787Z,1.10
2023-01-21T13:36:41.160Z,1.20
2023-01-21T13:39:16.894Z,1.20
2023-01-21T13:41:43.460Z,1.30
2023-01-21T13:44:28.909Z,1.10
2023-01-21T13:46:55.553Z,1.20
2023-01-21T13:49:41.228Z,1.50
2023-01-21T13:52:32.134Z,1.40
2023-01-21T13:54:58.761Z,1.40
2023-01-21T13:57:27.562Z,1.40
2023-01-21T13:59:54.131Z,1.50
2023-01-21T14:02:20.840Z,1.40
2023-01-21T14:04:59.460Z,1.40
2023-01-21T14:07:38.972Z,1.40
2023-01-21T14:10:05.667Z,1.50
2023-01-21T14:12:43.172Z,1.40
2023-01-21T14:15:09.705Z,1.50
2023-01-21T14:17:55.036Z,1.40
2023-01-21T14:20:40.080Z,1.50
2023-01-21T14:23:06.857Z,1.40
2023-01-21T14:25:53.515Z,1.50
2023-01-21T14:28:32.426Z,1.20
2023-01-21T14:30:59.672Z,1.60
2023-01-21T14:33:35.595Z,1.40
2023-01-21T14:36:02.187Z,1.40
2023-01-21T14:38:34.619Z,1.60
2023-01-21T14:41:08.770Z,1.60
2023-01-21T14:43:40.929Z,1.50
2023-01-21T14:46:26.003Z,1.40
2023-01-21T14:49:12.196Z,1.60
2023-01-21T14:51:43.262Z,1.40
2023-01-21T14:54:10.114Z,1.60
2023-01-21T14:56:37.064Z,1.60
2023-01-21T14:59:10.832Z,1.50
2023-01-21T15:01:37.548Z,1.40
2023-01-21T15:04:07.613Z,1.50
2023-01-21T15:06:39.040Z,1.30
2023-01-21T15:09:06.520Z,1.50
2023-01-21T15:11:40.286Z,1.50
2023-01-21T15:14:46.501Z,1.30
2023-01-21T15:17:31.430Z,1.50
2023-01-21T15:19:58.543Z,1.50
2023-01-21T15:22:41.012Z,1.50
2023-01-21T15:25:16.489Z,1.50
2023-01-21T15:28:03.298Z,1.40
2023-01-21T15:30:43.000Z,1.50
2023-01-21T15:33:17.257Z,1.00
2023-01-21T15:35:44.362Z,1.30
2023-01-21T15:38:14.932Z,1.30
2023-01-21T15:40:47.455Z,1.30
2023-01-21T15:43:26.015Z,1.60
2023-01-21T15:45:55.596Z,1.50
2023-01-21T15:48:42.801Z,1.30
2023-01-21T15:51:20.410Z,1.30
2023-01-21T15:53:49.698Z,1.60
2023-01-21T15:56:31.351Z,1.30
2023-01-21T15:59:16.512Z,1.70
2023-01-21T16:01:43.221Z,1.50
2023-01-21T16:04:11.948Z,1.40
2023-01-21T16:06:45.532Z,1.70
2023-01-21T16:09:19.134Z,1.40
2023-01-21T16:12:04.340Z,1.50
2023-01-21T16:14:53.911Z,1.50
2023-01-21T16:17:34.394Z,1.50
2023-01-21T16:20:01.630Z,1.70
2023-01-21T16:22:29.532Z,1.60
2023-01-21T16:25:02.529Z,1.50
2023-01-21T16:27:31.020Z,1.50
2023-01-21T16:30:00.328Z,1.40
2023-01-21T16:32:27.170Z,1.60
2023-01-21T16:34:56.394Z,1.60
2023-01-21T16:37:24.833Z,1.70
2023-01-21T16:39:56.409Z,1.60
2023-01-21T16:42:33.725Z,1.40
2023-01-21T16:45:03.571Z,1.30
2023-01-21T16:47:34.499Z,1.60
2023-01-21T16:50:01.267Z,1.60
2023-01-21T16:52:28.316Z,1.50
2023-01-21T16:54:55.357Z,1.70
2023-01-21T16:57:31.511Z,1.70
2023-01-21T17:00:02.414Z,1.70
2023-01-21T17:02:31.363Z,1.70
2023-01-21T17:05:04.602Z,1.70
2023-01-21T17:07:38.132Z,1.80
2023-01-21T17:10:06.911Z,1.90
2023-01-21T17:12:36.221Z,1.90
2023-01-21T17:15:29.838Z,1.80
2023-01-21T17:17:58.504Z,1.70
2023-01-21T17:20:40.390Z,1.90
2023-01-21T17:23:11.006Z,2.10
2023-01-21T17:25:37.683Z,2.50
2023-01-21T17:28:15.221Z,3.00
2023-01-21T17:30:41.881Z,3.40
2023-01-21T17:33:24.631Z,3.70
2023-01-21T17:36:23.553Z,4.50
2023-01-21T21:20:32.497Z,2.10
2023-01-21T21:22:59.061Z,2.30
2023-01-21T21:25:27.071Z,2.30
2023-01-21T21:27:54.295Z,2.20
2023-01-21T21:30:21.868Z,2.30
2023-01-21T21:32:48.658Z,2.20
2023-01-21T21:35:19.974Z,2.10
2023-01-21T21:37:46.515Z,2.20
2023-01-21T21:40:13.363Z,2.10
2023-01-21T21:42:58.773Z,2.40
2023-01-21T21:45:25.393Z,2.30
2023-01-21T21:48:10.809Z,2.10
2023-01-21T21:50:37.438Z,1.60
2023-01-21T21:53:06.490Z,1.70
2023-01-21T21:55:33.372Z,1.80
2023-01-21T21:58:00.112Z,2.00
2023-01-21T22:00:26.793Z,1.70
2023-01-21T22:02:56.940Z,1.80
2023-01-21T22:05:23.544Z,1.90
2023-01-21T22:07:52.306Z,1.70
2023-01-21T22:10:19.726Z,2.00
2023-01-21T22:12:46.323Z,2.00
2023-01-21T22:15:17.817Z,1.90
2023-01-21T22:17:46.996Z,2.10
2023-01-21T22:20:13.636Z,1.80
2023-01-21T22:22:40.247Z,2.00
2023-01-21T22:25:07.284Z,2.00
2023-01-21T22:27:33.919Z,2.00
2023-01-21T22:30:01.567Z,2.10
2023-01-21T22:32:28.340Z,2.10
2023-01-21T22:34:55.024Z,2.00
2023-01-21T22:37:21.649Z,2.00
2023-01-21T22:39:48.318Z,2.00
2023-01-21T22:42:14.916Z,2.10
2023-01-21T22:44:41.503Z,2.10
2023-01-21T22:47:08.136Z,2.10
2023-01-21T22:49:34.859Z,1.90
2023-01-21T22:52:01.533Z,1.90
2023-01-21T22:54:28.089Z,1.80
2023-01-21T22:56:59.409Z,2.10
2023-01-21T22:59:25.973Z,2.10
2023-01-21T23:01:55.014Z,2.00
2023-01-21T23:04:21.605Z,2.00
2023-01-21T23:06:49.971Z,2.20
2023-01-21T23:09:16.709Z,2.10
2023-01-21T23:11:45.846Z,2.10
2023-01-21T23:14:12.547Z,2.20
2023-01-21T23:16:39.764Z,2.20
2023-01-21T23:19:06.340Z,2.20
2023-01-21T23:21:32.997Z,2.00
2023-01-21T23:23:59.629Z,2.30
2023-01-21T23:26:26.226Z,2.00
2023-01-21T23:28:56.695Z,2.10
2023-01-21T23:31:23.616Z,1.90
2023-01-21T23:33:54.279Z,1.90
2023-01-21T23:36:21.043Z,1.90
2023-01-21T23:38:50.188Z,1.80
2023-01-21T23:41:17.037Z,2.00
2023-01-21T23:43:45.966Z,2.10
2023-01-21T23:46:16.352Z,2.10
2023-01-21T23:48:43.247Z,1.90
2023-01-21T23:51:11.881Z,1.60
2023-01-21T23:53:41.093Z,1.90
2023-01-21T23:56:12.573Z,1.90
2023-01-21T23:58:39.451Z,1.80
